sensor_id;sensor_type;location;lat;lon;timestamp;P1;durP1;ratioP1;P2;durP2;ratioP2
35917;SDS011;22011;59.912;30.300;2023-03-12T00:01:59;17.52;;;10.00;;
35917;SDS011;22011;59.912;30.300;2023-03-12T00:04:27;13.48;;;9.48;;
35917;SDS011;22011;59.912;30.300;2023-03-12T00:06:54;15.70;;;11.20;;
35917;SDS011;22011;59.912;30.300;2023-03-12T00:09:22;15.80;;;10.80;;
35917;SDS011;22011;59.912;30.300;2023-03-12T00:11:49;17.38;;;11.25;;
35917;SDS011;22011;59.912;30.300;2023-03-12T00:14:17;14.88;;;11.07;;
35917;SDS011;22011;59.912;30.300;2023-03-12T00:16:46;15.60;;;11.43;;
35917;SDS011;22011;59.912;30.300;2023-03-12T00:19:13;17.95;;;12.82;;
35917;SDS011;22011;59.912;30.300;2023-03-12T00:21:41;17.77;;;11.40;;
35917;SDS011;22011;59.912;30.300;2023-03-12T00:24:08;17.27;;;12.23;;
35917;SDS011;22011;59.912;30.300;2023-03-12T00:26:36;16.35;;;10.82;;
35917;SDS011;22011;59.912;30.300;2023-03-12T00:29:03;19.52;;;11.98;;
35917;SDS011;22011;59.912;30.300;2023-03-12T00:31:31;18.02;;;12.18;;
35917;SDS011;22011;59.912;30.300;2023-03-12T00:34:01;18.35;;;12.55;;
35917;SDS011;22011;59.912;30.300;2023-03-12T00:36:29;19.87;;;11.67;;
35917;SDS011;22011;59.912;30.300;2023-03-12T00:38:59;17.88;;;11.88;;
35917;SDS011;22011;59.912;30.300;2023-03-12T00:41:27;17.85;;;12.20;;
35917;SDS011;22011;59.912;30.300;2023-03-12T00:43:55;21.95;;;13.60;;
35917;SDS011;22011;59.912;30.300;2023-03-12T00:46:23;19.55;;;13.02;;
35917;SDS011;22011;59.912;30.300;2023-03-12T00:48:51;21.92;;;14.10;;
35917;SDS011;22011;59.912;30.300;2023-03-12T00:51:20;27.77;;;16.73;;
35917;SDS011;22011;59.912;30.300;2023-03-12T00:53:48;31.65;;;17.55;;
35917;SDS011;22011;59.912;30.300;2023-03-12T00:56:15;37.30;;;18.55;;
35917;SDS011;22011;59.912;30.300;2023-03-12T00:58:43;28.52;;;17.33;;
35917;SDS011;22011;59.912;30.300;2023-03-12T01:01:11;32.22;;;16.95;;
35917;SDS011;22011;59.912;30.300;2023-03-12T01:03:39;24.80;;;15.05;;
35917;SDS011;22011;59.912;30.300;2023-03-12T01:06:07;27.58;;;15.88;;
35917;SDS011;22011;59.912;30.300;2023-03-12T01:08:36;21.95;;;14.15;;
35917;SDS011;22011;59.912;30.300;2023-03-12T01:11:04;19.75;;;13.43;;
35917;SDS011;22011;59.912;30.300;2023-03-12T01:13:31;24.63;;;15.02;;
35917;SDS011;22011;59.912;30.300;2023-03-12T01:15:59;24.45;;;15.32;;
35917;SDS011;22011;59.912;30.300;2023-03-12T01:18:26;24.40;;;15.20;;
35917;SDS011;22011;59.912;30.300;2023-03-12T01:20:54;22.05;;;15.40;;
35917;SDS011;22011;59.912;30.300;2023-03-12T01:23:21;21.75;;;14.48;;
35917;SDS011;22011;59.912;30.300;2023-03-12T01:25:50;25.38;;;15.02;;
35917;SDS011;22011;59.912;30.300;2023-03-12T01:28:20;22.98;;;14.48;;
35917;SDS011;22011;59.912;30.300;2023-03-12T01:30:47;22.92;;;14.73;;
35917;SDS011;22011;59.912;30.300;2023-03-12T01:33:15;23.00;;;14.63;;
35917;SDS011;22011;59.912;30.300;2023-03-12T01:35:44;23.63;;;14.82;;
35917;SDS011;22011;59.912;30.300;2023-03-12T01:38:12;24.30;;;14.57;;
35917;SDS011;22011;59.912;30.300;2023-03-12T01:40:41;25.73;;;15.63;;
35917;SDS011;22011;59.912;30.300;2023-03-12T01:43:20;24.92;;;15.23;;
35917;SDS011;22011;59.912;30.300;2023-03-12T01:45:58;23.63;;;15.27;;
35917;SDS011;22011;59.912;30.300;2023-03-12T01:51:02;27.15;;;13.93;;
35917;SDS011;22011;59.912;30.300;2023-03-12T01:53:32;23.77;;;15.35;;
35917;SDS011;22011;59.912;30.300;2023-03-12T01:56:00;22.35;;;14.38;;
35917;SDS011;22011;59.912;30.300;2023-03-12T01:58:31;23.58;;;15.18;;
35917;SDS011;22011;59.912;30.300;2023-03-12T02:01:00;24.63;;;14.57;;
35917;SDS011;22011;59.912;30.300;2023-03-12T02:03:28;23.85;;;14.40;;
35917;SDS011;22011;59.912;30.300;2023-03-12T02:05:59;27.15;;;14.68;;
35917;SDS011;22011;59.912;30.300;2023-03-12T02:08:32;29.38;;;14.18;;
35917;SDS011;22011;59.912;30.300;2023-03-12T02:11:03;22.75;;;14.43;;
35917;SDS011;22011;59.912;30.300;2023-03-12T02:13:32;27.15;;;13.93;;
35917;SDS011;22011;59.912;30.300;2023-03-12T02:16:00;25.50;;;14.85;;
35917;SDS011;22011;59.912;30.300;2023-03-12T02:18:28;21.90;;;14.45;;
35917;SDS011;22011;59.912;30.300;2023-03-12T02:20:58;19.85;;;13.05;;
35917;SDS011;22011;59.912;30.300;2023-03-12T02:23:31;24.10;;;14.93;;
35917;SDS011;22011;59.912;30.300;2023-03-12T02:26:04;20.92;;;12.45;;
35917;SDS011;22011;59.912;30.300;2023-03-12T02:28:35;23.38;;;14.15;;
35917;SDS011;22011;59.912;30.300;2023-03-12T02:31:10;21.90;;;13.68;;
35917;SDS011;22011;59.912;30.300;2023-03-12T02:33:40;18.40;;;13.48;;
35917;SDS011;22011;59.912;30.300;2023-03-12T02:36:08;17.30;;;12.73;;
35917;SDS011;22011;59.912;30.300;2023-03-12T02:38:38;22.70;;;14.20;;
35917;SDS011;22011;59.912;30.300;2023-03-12T02:41:11;23.30;;;14.35;;
35917;SDS011;22011;59.912;30.300;2023-03-12T02:43:41;19.58;;;13.60;;
35917;SDS011;22011;59.912;30.300;2023-03-12T02:46:11;19.70;;;12.77;;
35917;SDS011;22011;59.912;30.300;2023-03-12T02:48:40;20.38;;;13.27;;
35917;SDS011;22011;59.912;30.300;2023-03-12T02:51:08;20.80;;;13.27;;
35917;SDS011;22011;59.912;30.300;2023-03-12T02:53:36;19.67;;;12.05;;
35917;SDS011;22011;59.912;30.300;2023-03-12T02:56:03;17.80;;;12.45;;
35917;SDS011;22011;59.912;30.300;2023-03-12T02:58:33;23.25;;;13.60;;
35917;SDS011;22011;59.912;30.300;2023-03-12T03:01:02;17.88;;;11.98;;
35917;SDS011;22011;59.912;30.300;2023-03-12T03:03:30;17.08;;;11.52;;
35917;SDS011;22011;59.912;30.300;2023-03-12T03:05:57;19.13;;;11.82;;
35917;SDS011;22011;59.912;30.300;2023-03-12T03:08:25;15.50;;;10.95;;
35917;SDS011;22011;59.912;30.300;2023-03-12T03:10:52;19.00;;;11.27;;
35917;SDS011;22011;59.912;30.300;2023-03-12T03:13:20;16.67;;;11.63;;
35917;SDS011;22011;59.912;30.300;2023-03-12T03:15:49;17.50;;;11.70;;
35917;SDS011;22011;59.912;30.300;2023-03-12T03:18:17;17.50;;;10.75;;
35917;SDS011;22011;59.912;30.300;2023-03-12T03:20:44;16.75;;;10.73;;
35917;SDS011;22011;59.912;30.300;2023-03-12T03:23:12;15.60;;;10.85;;
35917;SDS011;22011;59.912;30.300;2023-03-12T03:25:39;12.38;;;8.80;;
35917;SDS011;22011;59.912;30.300;2023-03-12T03:28:07;13.73;;;8.35;;
35917;SDS011;22011;59.912;30.300;2023-03-12T03:30:34;13.38;;;8.57;;
35917;SDS011;22011;59.912;30.300;2023-03-12T03:33:05;12.27;;;7.63;;
35917;SDS011;22011;59.912;30.300;2023-03-12T03:35:33;14.98;;;8.50;;
35917;SDS011;22011;59.912;30.300;2023-03-12T03:38:01;10.95;;;8.45;;
35917;SDS011;22011;59.912;30.300;2023-03-12T03:40:29;12.93;;;7.13;;
35917;SDS011;22011;59.912;30.300;2023-03-12T03:42:56;10.13;;;6.78;;
35917;SDS011;22011;59.912;30.300;2023-03-12T03:45:24;10.77;;;6.85;;
35917;SDS011;22011;59.912;30.300;2023-03-12T03:47:53;11.48;;;7.30;;
35917;SDS011;22011;59.912;30.300;2023-03-12T03:50:22;11.55;;;7.72;;
35917;SDS011;22011;59.912;30.300;2023-03-12T03:52:49;9.27;;;6.53;;
35917;SDS011;22011;59.912;30.300;2023-03-12T03:55:17;8.90;;;6.95;;
35917;SDS011;22011;59.912;30.300;2023-03-12T03:57:44;10.07;;;6.93;;
35917;SDS011;22011;59.912;30.300;2023-03-12T04:00:13;10.15;;;7.07;;
35917;SDS011;22011;59.912;30.300;2023-03-12T04:02:45;10.70;;;6.82;;
35917;SDS011;22011;59.912;30.300;2023-03-12T04:05:14;8.88;;;6.25;;
35917;SDS011;22011;59.912;30.300;2023-03-12T04:07:46;8.85;;;6.65;;
35917;SDS011;22011;59.912;30.300;2023-03-12T04:10:18;11.38;;;7.97;;
35917;SDS011;22011;59.912;30.300;2023-03-12T04:12:46;9.88;;;6.70;;
35917;SDS011;22011;59.912;30.300;2023-03-12T04:15:13;8.52;;;5.90;;
35917;SDS011;22011;59.912;30.300;2023-03-12T04:17:41;8.07;;;6.22;;
35917;SDS011;22011;59.912;30.300;2023-03-12T04:20:10;8.77;;;6.13;;
35917;SDS011;22011;59.912;30.300;2023-03-12T04:25:09;8.45;;;5.68;;
35917;SDS011;22011;59.912;30.300;2023-03-12T04:27:37;7.18;;;5.35;;
35917;SDS011;22011;59.912;30.300;2023-03-12T04:30:04;12.77;;;7.68;;
35917;SDS011;22011;59.912;30.300;2023-03-12T04:32:34;8.68;;;5.55;;
35917;SDS011;22011;59.912;30.300;2023-03-12T04:35:02;11.07;;;6.00;;
35917;SDS011;22011;59.912;30.300;2023-03-12T04:37:31;9.32;;;6.18;;
35917;SDS011;22011;59.912;30.300;2023-03-12T04:40:00;8.60;;;6.65;;
35917;SDS011;22011;59.912;30.300;2023-03-12T04:42:34;8.77;;;5.72;;
35917;SDS011;22011;59.912;30.300;2023-03-12T04:45:02;8.77;;;5.33;;
35917;SDS011;22011;59.912;30.300;2023-03-12T04:47:30;8.25;;;6.00;;
35917;SDS011;22011;59.912;30.300;2023-03-12T04:49:59;9.25;;;6.47;;
35917;SDS011;22011;59.912;30.300;2023-03-12T04:52:27;10.63;;;6.70;;
35917;SDS011;22011;59.912;30.300;2023-03-12T04:54:55;10.60;;;5.47;;
35917;SDS011;22011;59.912;30.300;2023-03-12T04:57:24;8.10;;;5.72;;
35917;SDS011;22011;59.912;30.300;2023-03-12T04:59:53;9.27;;;6.28;;
35917;SDS011;22011;59.912;30.300;2023-03-12T05:02:21;7.97;;;5.40;;
35917;SDS011;22011;59.912;30.300;2023-03-12T05:04:49;12.70;;;6.43;;
35917;SDS011;22011;59.912;30.300;2023-03-12T05:07:16;8.18;;;5.68;;
35917;SDS011;22011;59.912;30.300;2023-03-12T05:09:44;9.35;;;4.45;;
35917;SDS011;22011;59.912;30.300;2023-03-12T05:12:13;6.93;;;4.85;;
35917;SDS011;22011;59.912;30.300;2023-03-12T05:14:41;6.72;;;5.07;;
35917;SDS011;22011;59.912;30.300;2023-03-12T05:17:10;9.77;;;5.63;;
35917;SDS011;22011;59.912;30.300;2023-03-12T05:19:38;6.65;;;5.07;;
35917;SDS011;22011;59.912;30.300;2023-03-12T05:22:05;7.28;;;4.88;;
35917;SDS011;22011;59.912;30.300;2023-03-12T05:24:34;8.57;;;4.65;;
35917;SDS011;22011;59.912;30.300;2023-03-12T05:27:02;8.60;;;4.80;;
35917;SDS011;22011;59.912;30.300;2023-03-12T05:29:30;10.77;;;5.15;;
35917;SDS011;22011;59.912;30.300;2023-03-12T05:32:01;6.97;;;4.68;;
35917;SDS011;22011;59.912;30.300;2023-03-12T05:34:30;6.80;;;4.68;;
35917;SDS011;22011;59.912;30.300;2023-03-12T05:36:58;10.70;;;4.97;;
35917;SDS011;22011;59.912;30.300;2023-03-12T05:39:27;7.20;;;4.47;;
35917;SDS011;22011;59.912;30.300;2023-03-12T05:41:58;8.02;;;4.72;;
35917;SDS011;22011;59.912;30.300;2023-03-12T05:44:26;5.85;;;4.25;;
35917;SDS011;22011;59.912;30.300;2023-03-12T05:46:54;9.95;;;3.85;;
35917;SDS011;22011;59.912;30.300;2023-03-12T05:49:24;6.37;;;4.50;;
35917;SDS011;22011;59.912;30.300;2023-03-12T05:51:54;6.82;;;4.00;;
35917;SDS011;22011;59.912;30.300;2023-03-12T05:54:22;6.75;;;4.28;;
35917;SDS011;22011;59.912;30.300;2023-03-12T05:56:51;5.95;;;3.75;;
35917;SDS011;22011;59.912;30.300;2023-03-12T05:59:22;5.25;;;3.72;;
35917;SDS011;22011;59.912;30.300;2023-03-12T06:01:51;5.55;;;4.25;;
35917;SDS011;22011;59.912;30.300;2023-03-12T06:04:19;5.43;;;3.95;;
35917;SDS011;22011;59.912;30.300;2023-03-12T06:06:47;9.90;;;3.85;;
35917;SDS011;22011;59.912;30.300;2023-03-12T06:09:16;5.13;;;3.40;;
35917;SDS011;22011;59.912;30.300;2023-03-12T06:11:44;7.18;;;3.67;;
35917;SDS011;22011;59.912;30.300;2023-03-12T06:14:11;6.20;;;3.67;;
35917;SDS011;22011;59.912;30.300;2023-03-12T06:16:39;4.63;;;3.03;;
35917;SDS011;22011;59.912;30.300;2023-03-12T06:19:07;5.18;;;2.75;;
35917;SDS011;22011;59.912;30.300;2023-03-12T06:21:39;4.25;;;2.92;;
35917;SDS011;22011;59.912;30.300;2023-03-12T06:24:08;4.67;;;2.97;;
35917;SDS011;22011;59.912;30.300;2023-03-12T06:26:43;4.30;;;2.67;;
35917;SDS011;22011;59.912;30.300;2023-03-12T06:29:10;4.85;;;2.42;;
35917;SDS011;22011;59.912;30.300;2023-03-12T06:31:38;3.80;;;2.67;;
35917;SDS011;22011;59.912;30.300;2023-03-12T06:34:09;4.15;;;2.33;;
35917;SDS011;22011;59.912;30.300;2023-03-12T06:36:37;3.58;;;2.42;;
35917;SDS011;22011;59.912;30.300;2023-03-12T06:39:04;3.22;;;2.28;;
35917;SDS011;22011;59.912;30.300;2023-03-12T06:41:33;4.45;;;2.63;;
35917;SDS011;22011;59.912;30.300;2023-03-12T06:44:03;3.50;;;2.33;;
35917;SDS011;22011;59.912;30.300;2023-03-12T06:46:30;3.10;;;2.40;;
35917;SDS011;22011;59.912;30.300;2023-03-12T06:48:58;2.60;;;2.03;;
35917;SDS011;22011;59.912;30.300;2023-03-12T06:51:26;3.85;;;2.40;;
35917;SDS011;22011;59.912;30.300;2023-03-12T06:53:53;2.85;;;2.17;;
35917;SDS011;22011;59.912;30.300;2023-03-12T06:56:21;3.13;;;2.10;;
35917;SDS011;22011;59.912;30.300;2023-03-12T06:58:48;3.97;;;2.08;;
35917;SDS011;22011;59.912;30.300;2023-03-12T07:01:17;7.93;;;2.15;;
35917;SDS011;22011;59.912;30.300;2023-03-12T07:03:45;2.63;;;1.90;;
35917;SDS011;22011;59.912;30.300;2023-03-12T07:06:13;4.18;;;2.08;;
35917;SDS011;22011;59.912;30.300;2023-03-12T07:08:41;3.20;;;1.70;;
35917;SDS011;22011;59.912;30.300;2023-03-12T07:11:09;3.22;;;1.85;;
35917;SDS011;22011;59.912;30.300;2023-03-12T07:13:37;2.42;;;1.88;;
35917;SDS011;22011;59.912;30.300;2023-03-12T07:16:06;2.75;;;2.05;;
35917;SDS011;22011;59.912;30.300;2023-03-12T07:18:35;2.58;;;1.65;;
35917;SDS011;22011;59.912;30.300;2023-03-12T07:21:05;2.40;;;1.50;;
35917;SDS011;22011;59.912;30.300;2023-03-12T07:23:32;2.83;;;1.60;;
35917;SDS011;22011;59.912;30.300;2023-03-12T07:26:00;2.42;;;1.75;;
35917;SDS011;22011;59.912;30.300;2023-03-12T07:28:29;5.63;;;1.92;;
35917;SDS011;22011;59.912;30.300;2023-03-12T07:31:00;5.53;;;1.75;;
35917;SDS011;22011;59.912;30.300;2023-03-12T07:33:28;2.78;;;1.67;;
35917;SDS011;22011;59.912;30.300;2023-03-12T07:35:57;3.92;;;2.30;;
35917;SDS011;22011;59.912;30.300;2023-03-12T07:38:25;4.50;;;2.10;;
35917;SDS011;22011;59.912;30.300;2023-03-12T07:40:53;3.10;;;1.77;;
35917;SDS011;22011;59.912;30.300;2023-03-12T07:43:22;2.78;;;1.60;;
35917;SDS011;22011;59.912;30.300;2023-03-12T07:45:53;2.25;;;1.52;;
35917;SDS011;22011;59.912;30.300;2023-03-12T07:48:21;5.07;;;2.17;;
35917;SDS011;22011;59.912;30.300;2023-03-12T07:50:48;11.73;;;1.70;;
35917;SDS011;22011;59.912;30.300;2023-03-12T07:53:17;7.75;;;2.42;;
35917;SDS011;22011;59.912;30.300;2023-03-12T07:55:46;6.20;;;1.70;;
35917;SDS011;22011;59.912;30.300;2023-03-12T07:58:14;5.95;;;2.05;;
35917;SDS011;22011;59.912;30.300;2023-03-12T08:00:41;7.72;;;1.88;;
35917;SDS011;22011;59.912;30.300;2023-03-12T08:03:09;2.30;;;1.70;;
35917;SDS011;22011;59.912;30.300;2023-03-12T08:05:38;4.60;;;1.67;;
35917;SDS011;22011;59.912;30.300;2023-03-12T08:08:06;3.83;;;1.50;;
35917;SDS011;22011;59.912;30.300;2023-03-12T08:10:35;3.25;;;1.65;;
35917;SDS011;22011;59.912;30.300;2023-03-12T08:13:02;2.63;;;1.60;;
35917;SDS011;22011;59.912;30.300;2023-03-12T08:15:30;5.65;;;1.52;;
35917;SDS011;22011;59.912;30.300;2023-03-12T08:17:58;3.13;;;2.00;;
35917;SDS011;22011;59.912;30.300;2023-03-12T08:20:26;3.42;;;1.92;;
35917;SDS011;22011;59.912;30.300;2023-03-12T08:22:53;3.28;;;2.05;;
35917;SDS011;22011;59.912;30.300;2023-03-12T08:25:21;3.28;;;1.65;;
35917;SDS011;22011;59.912;30.300;2023-03-12T08:27:50;4.28;;;2.38;;
35917;SDS011;22011;59.912;30.300;2023-03-12T08:30:18;4.40;;;1.90;;
35917;SDS011;22011;59.912;30.300;2023-03-12T08:32:46;2.38;;;1.50;;
35917;SDS011;22011;59.912;30.300;2023-03-12T08:35:14;2.88;;;1.98;;
35917;SDS011;22011;59.912;30.300;2023-03-12T08:37:41;2.47;;;1.70;;
35917;SDS011;22011;59.912;30.300;2023-03-12T08:40:09;3.40;;;1.90;;
35917;SDS011;22011;59.912;30.300;2023-03-12T08:42:38;3.05;;;2.40;;
35917;SDS011;22011;59.912;30.300;2023-03-12T08:45:08;5.20;;;2.15;;
35917;SDS011;22011;59.912;30.300;2023-03-12T08:47:36;3.17;;;2.30;;
35917;SDS011;22011;59.912;30.300;2023-03-12T08:50:06;4.85;;;2.53;;
35917;SDS011;22011;59.912;30.300;2023-03-12T08:52:35;4.93;;;2.60;;
35917;SDS011;22011;59.912;30.300;2023-03-12T08:55:07;4.80;;;2.03;;
35917;SDS011;22011;59.912;30.300;2023-03-12T08:57:35;3.03;;;2.00;;
35917;SDS011;22011;59.912;30.300;2023-03-12T09:00:02;10.63;;;2.42;;
35917;SDS011;22011;59.912;30.300;2023-03-12T09:02:37;2.05;;;1.40;;
35917;SDS011;22011;59.912;30.300;2023-03-12T09:05:05;2.35;;;1.95;;
35917;SDS011;22011;59.912;30.300;2023-03-12T09:07:33;2.50;;;1.70;;
35917;SDS011;22011;59.912;30.300;2023-03-12T09:10:01;1.90;;;1.60;;
35917;SDS011;22011;59.912;30.300;2023-03-12T09:12:28;3.10;;;1.52;;
35917;SDS011;22011;59.912;30.300;2023-03-12T09:14:56;3.05;;;1.63;;
35917;SDS011;22011;59.912;30.300;2023-03-12T09:17:23;3.33;;;1.60;;
35917;SDS011;22011;59.912;30.300;2023-03-12T09:19:52;3.33;;;1.50;;
35917;SDS011;22011;59.912;30.300;2023-03-12T09:22:20;3.85;;;2.25;;
35917;SDS011;22011;59.912;30.300;2023-03-12T09:24:47;2.60;;;1.23;;
35917;SDS011;22011;59.912;30.300;2023-03-12T09:27:15;2.75;;;1.33;;
35917;SDS011;22011;59.912;30.300;2023-03-12T09:29:43;2.33;;;1.42;;
35917;SDS011;22011;59.912;30.300;2023-03-12T09:32:10;2.75;;;1.80;;
35917;SDS011;22011;59.912;30.300;2023-03-12T09:34:40;2.63;;;1.33;;
35917;SDS011;22011;59.912;30.300;2023-03-12T09:37:08;2.38;;;1.30;;
35917;SDS011;22011;59.912;30.300;2023-03-12T09:39:36;1.70;;;0.90;;
35917;SDS011;22011;59.912;30.300;2023-03-12T09:42:04;4.43;;;1.50;;
35917;SDS011;22011;59.912;30.300;2023-03-12T09:44:40;2.35;;;1.08;;
35917;SDS011;22011;59.912;30.300;2023-03-12T09:47:14;3.40;;;1.38;;
35917;SDS011;22011;59.912;30.300;2023-03-12T09:49:52;2.65;;;1.10;;
35917;SDS011;22011;59.912;30.300;2023-03-12T09:52:26;5.53;;;1.27;;
35917;SDS011;22011;59.912;30.300;2023-03-12T09:54:58;3.67;;;1.15;;
35917;SDS011;22011;59.912;30.300;2023-03-12T09:57:29;2.15;;;1.10;;
35917;SDS011;22011;59.912;30.300;2023-03-12T09:59:57;1.20;;;1.02;;
35917;SDS011;22011;59.912;30.300;2023-03-12T10:02:28;1.63;;;0.90;;
35917;SDS011;22011;59.912;30.300;2023-03-12T10:05:11;1.92;;;0.98;;
35917;SDS011;22011;59.912;30.300;2023-03-12T10:07:47;3.03;;;1.33;;
35917;SDS011;22011;59.912;30.300;2023-03-12T10:10:24;1.80;;;1.50;;
35917;SDS011;22011;59.912;30.300;2023-03-12T10:13:06;2.05;;;1.10;;
35917;SDS011;22011;59.912;30.300;2023-03-12T10:15:47;3.50;;;1.27;;
35917;SDS011;22011;59.912;30.300;2023-03-12T10:18:25;4.88;;;1.40;;
35917;SDS011;22011;59.912;30.300;2023-03-12T10:21:14;2.35;;;1.38;;
35917;SDS011;22011;59.912;30.300;2023-03-12T10:23:52;3.30;;;1.38;;
35917;SDS011;22011;59.912;30.300;2023-03-12T10:26:30;2.20;;;1.25;;
35917;SDS011;22011;59.912;30.300;2023-03-12T10:29:07;2.17;;;1.20;;
35917;SDS011;22011;59.912;30.300;2023-03-12T10:31:44;3.63;;;1.35;;
35917;SDS011;22011;59.912;30.300;2023-03-12T10:34:18;2.90;;;0.93;;
35917;SDS011;22011;59.912;30.300;2023-03-12T10:36:51;2.08;;;1.20;;
35917;SDS011;22011;59.912;30.300;2023-03-12T10:39:26;2.60;;;1.38;;
35917;SDS011;22011;59.912;30.300;2023-03-12T10:41:53;3.35;;;1.17;;
35917;SDS011;22011;59.912;30.300;2023-03-12T10:44:22;2.35;;;0.98;;
35917;SDS011;22011;59.912;30.300;2023-03-12T10:47:02;1.15;;;0.98;;
35917;SDS011;22011;59.912;30.300;2023-03-12T10:49:34;2.03;;;1.30;;
35917;SDS011;22011;59.912;30.300;2023-03-12T10:52:04;1.48;;;0.80;;
35917;SDS011;22011;59.912;30.300;2023-03-12T10:57:05;4.32;;;1.08;;
35917;SDS011;22011;59.912;30.300;2023-03-12T10:59:34;3.10;;;1.08;;
35917;SDS011;22011;59.912;30.300;2023-03-12T11:02:20;1.35;;;1.05;;
35917;SDS011;22011;59.912;30.300;2023-03-12T11:04:56;1.55;;;0.90;;
35917;SDS011;22011;59.912;30.300;2023-03-12T11:07:26;3.15;;;1.00;;
35917;SDS011;22011;59.912;30.300;2023-03-12T11:12:54;1.50;;;0.95;;
35917;SDS011;22011;59.912;30.300;2023-03-12T11:15:28;1.42;;;1.00;;
35917;SDS011;22011;59.912;30.300;2023-03-12T11:20:54;2.22;;;0.80;;
35917;SDS011;22011;59.912;30.300;2023-03-12T11:23:24;0.95;;;0.65;;
35917;SDS011;22011;59.912;30.300;2023-03-12T11:25:56;2.38;;;0.85;;
35917;SDS011;22011;59.912;30.300;2023-03-12T11:28:28;2.38;;;1.23;;
35917;SDS011;22011;59.912;30.300;2023-03-12T11:31:02;1.73;;;1.00;;
35917;SDS011;22011;59.912;30.300;2023-03-12T11:33:34;3.88;;;1.02;;
35917;SDS011;22011;59.912;30.300;2023-03-12T11:36:05;1.55;;;0.88;;
35917;SDS011;22011;59.912;30.300;2023-03-12T11:38:45;1.38;;;0.73;;
35917;SDS011;22011;59.912;30.300;2023-03-12T11:41:28;1.77;;;0.90;;
35917;SDS011;22011;59.912;30.300;2023-03-12T11:44:11;2.03;;;1.13;;
35917;SDS011;22011;59.912;30.300;2023-03-12T11:46:54;2.63;;;0.75;;
35917;SDS011;22011;59.912;30.300;2023-03-12T11:49:39;2.20;;;0.88;;
35917;SDS011;22011;59.912;30.300;2023-03-12T11:52:17;1.95;;;0.85;;
35917;SDS011;22011;59.912;30.300;2023-03-12T11:58:19;1.17;;;0.90;;
35917;SDS011;22011;59.912;30.300;2023-03-12T12:00:56;1.65;;;0.90;;
35917;SDS011;22011;59.912;30.300;2023-03-12T12:03:38;2.38;;;1.20;;
35917;SDS011;22011;59.912;30.300;2023-03-12T12:06:21;3.17;;;0.90;;
35917;SDS011;22011;59.912;30.300;2023-03-12T12:08:59;1.20;;;0.98;;
35917;SDS011;22011;59.912;30.300;2023-03-12T12:11:39;1.20;;;0.95;;
35917;SDS011;22011;59.912;30.300;2023-03-12T12:14:17;3.25;;;0.90;;
35917;SDS011;22011;59.912;30.300;2023-03-12T12:17:04;1.90;;;0.80;;
35917;SDS011;22011;59.912;30.300;2023-03-12T12:19:46;2.60;;;1.30;;
35917;SDS011;22011;59.912;30.300;2023-03-12T12:22:28;2.30;;;1.00;;
35917;SDS011;22011;59.912;30.300;2023-03-12T12:30:56;3.80;;;1.40;;
35917;SDS011;22011;59.912;30.300;2023-03-12T12:36:28;3.63;;;1.10;;
35917;SDS011;22011;59.912;30.300;2023-03-12T12:39:00;3.85;;;1.00;;
35917;SDS011;22011;59.912;30.300;2023-03-12T12:41:34;2.83;;;1.10;;
35917;SDS011;22011;59.912;30.300;2023-03-12T12:44:05;2.20;;;1.15;;
35917;SDS011;22011;59.912;30.300;2023-03-12T12:46:40;1.05;;;0.90;;
35917;SDS011;22011;59.912;30.300;2023-03-12T12:49:11;1.27;;;0.90;;
35917;SDS011;22011;59.912;30.300;2023-03-12T12:51:42;2.70;;;1.08;;
35917;SDS011;22011;59.912;30.300;2023-03-12T12:54:17;1.92;;;1.10;;
35917;SDS011;22011;59.912;30.300;2023-03-12T12:56:50;2.70;;;1.30;;
35917;SDS011;22011;59.912;30.300;2023-03-12T12:59:30;2.97;;;1.27;;
35917;SDS011;22011;59.912;30.300;2023-03-12T13:04:41;1.85;;;1.10;;
35917;SDS011;22011;59.912;30.300;2023-03-12T13:07:29;2.80;;;1.50;;
35917;SDS011;22011;59.912;30.300;2023-03-12T13:09:59;2.20;;;1.23;;
35917;SDS011;22011;59.912;30.300;2023-03-12T13:12:32;2.28;;;0.88;;
35917;SDS011;22011;59.912;30.300;2023-03-12T13:18:08;4.05;;;1.27;;
35917;SDS011;22011;59.912;30.300;2023-03-12T13:20:58;2.33;;;1.35;;
35917;SDS011;22011;59.912;30.300;2023-03-12T13:23:38;1.90;;;0.95;;
35917;SDS011;22011;59.912;30.300;2023-03-12T13:26:17;1.65;;;0.90;;
35917;SDS011;22011;59.912;30.300;2023-03-12T13:28:57;0.93;;;0.80;;
35917;SDS011;22011;59.912;30.300;2023-03-12T13:31:38;1.70;;;0.82;;
35917;SDS011;22011;59.912;30.300;2023-03-12T13:37:19;2.33;;;1.38;;
35917;SDS011;22011;59.912;30.300;2023-03-12T13:40:13;1.92;;;1.17;;
35917;SDS011;22011;59.912;30.300;2023-03-12T13:49:09;1.98;;;0.95;;
35917;SDS011;22011;59.912;30.300;2023-03-12T13:51:43;1.23;;;0.80;;
35917;SDS011;22011;59.912;30.300;2023-03-12T13:54:16;2.17;;;0.90;;
35917;SDS011;22011;59.912;30.300;2023-03-12T13:56:45;2.60;;;1.45;;
35917;SDS011;22011;59.912;30.300;2023-03-12T13:59:23;2.08;;;0.90;;
35917;SDS011;22011;59.912;30.300;2023-03-12T14:01:53;1.48;;;1.02;;
35917;SDS011;22011;59.912;30.300;2023-03-12T14:04:28;2.60;;;1.13;;
35917;SDS011;22011;59.912;30.300;2023-03-12T14:07:06;2.00;;;0.90;;
35917;SDS011;22011;59.912;30.300;2023-03-12T14:09:50;3.05;;;0.90;;
35917;SDS011;22011;59.912;30.300;2023-03-12T14:12:26;1.67;;;0.80;;
35917;SDS011;22011;59.912;30.300;2023-03-12T14:15:05;1.30;;;0.90;;
35917;SDS011;22011;59.912;30.300;2023-03-12T14:17:41;1.95;;;0.80;;
35917;SDS011;22011;59.912;30.300;2023-03-12T14:20:11;3.35;;;0.80;;
35917;SDS011;22011;59.912;30.300;2023-03-12T14:22:43;2.03;;;1.20;;
35917;SDS011;22011;59.912;30.300;2023-03-12T14:25:20;1.10;;;0.90;;
35917;SDS011;22011;59.912;30.300;2023-03-12T14:27:55;1.55;;;0.90;;
35917;SDS011;22011;59.912;30.300;2023-03-12T14:30:23;1.42;;;0.77;;
35917;SDS011;22011;59.912;30.300;2023-03-12T14:32:58;1.65;;;0.70;;
35917;SDS011;22011;59.912;30.300;2023-03-12T14:35:28;1.52;;;1.00;;
35917;SDS011;22011;59.912;30.300;2023-03-12T14:38:03;2.70;;;1.13;;
35917;SDS011;22011;59.912;30.300;2023-03-12T14:40:36;5.78;;;1.20;;
35917;SDS011;22011;59.912;30.300;2023-03-12T14:43:22;2.78;;;1.10;;
35917;SDS011;22011;59.912;30.300;2023-03-12T14:45:56;1.27;;;0.80;;
35917;SDS011;22011;59.912;30.300;2023-03-12T14:48:26;2.08;;;0.90;;
35917;SDS011;22011;59.912;30.300;2023-03-12T14:50:55;1.27;;;0.80;;
35917;SDS011;22011;59.912;30.300;2023-03-12T14:53:24;1.02;;;0.90;;
35917;SDS011;22011;59.912;30.300;2023-03-12T14:56:01;2.60;;;1.05;;
35917;SDS011;22011;59.912;30.300;2023-03-12T14:58:32;2.42;;;1.35;;
35917;SDS011;22011;59.912;30.300;2023-03-12T15:01:02;2.03;;;1.10;;
35917;SDS011;22011;59.912;30.300;2023-03-12T15:03:32;2.60;;;1.30;;
35917;SDS011;22011;59.912;30.300;2023-03-12T15:06:05;1.92;;;1.13;;
35917;SDS011;22011;59.912;30.300;2023-03-12T15:08:41;4.95;;;1.38;;
35917;SDS011;22011;59.912;30.300;2023-03-12T15:11:11;3.65;;;1.08;;
35917;SDS011;22011;59.912;30.300;2023-03-12T15:13:38;2.88;;;1.20;;
35917;SDS011;22011;59.912;30.300;2023-03-12T15:16:06;2.83;;;0.98;;
35917;SDS011;22011;59.912;30.300;2023-03-12T15:18:34;3.58;;;1.50;;
35917;SDS011;22011;59.912;30.300;2023-03-12T15:21:03;1.25;;;0.82;;
35917;SDS011;22011;59.912;30.300;2023-03-12T15:23:32;2.90;;;1.05;;
35917;SDS011;22011;59.912;30.300;2023-03-12T15:26:12;1.35;;;0.90;;
35917;SDS011;22011;59.912;30.300;2023-03-12T15:28:42;3.03;;;1.13;;
35917;SDS011;22011;59.912;30.300;2023-03-12T15:31:10;1.13;;;1.02;;